createdAt,value
2022-12-31T00:01:25.242Z,100867.41
2022-12-31T00:03:00.617Z,100874.25
2022-12-31T00:04:32.937Z,100875.16
2022-12-31T00:06:19.737Z,100873.59
2022-12-31T00:07:54.860Z,100870.06
2022-12-31T00:09:26.878Z,100880.38
2022-12-31T00:10:58.979Z,100877.81
2022-12-31T00:12:31.009Z,100870.94
2022-12-31T00:14:03.690Z,100866.69
2022-12-31T00:15:35.823Z,100866.66
2022-12-31T00:17:07.895Z,100868.38
2022-12-31T00:18:40.230Z,100878.66
2022-12-31T00:20:12.199Z,100869.16
2022-12-31T00:21:44.321Z,100870.84
2022-12-31T00:23:16.311Z,100883.69
2022-12-31T00:24:48.359Z,100870.84
2022-12-31T00:26:22.526Z,100872.56
2022-12-31T00:27:56.047Z,100878.47
2022-12-31T00:29:27.839Z,100873.44
2022-12-31T00:31:15.273Z,100877.69
2022-12-31T00:32:47.287Z,100882.75
2022-12-31T00:34:19.255Z,100881.88
2022-12-31T00:35:51.301Z,100888.69
2022-12-31T00:37:23.375Z,100884.41
2022-12-31T00:38:57.122Z,100886.19
2022-12-31T00:40:29.851Z,100887.00
2022-12-31T00:42:01.950Z,100887.00
2022-12-31T00:43:34.803Z,100886.97
2022-12-31T00:45:07.411Z,100886.13
2022-12-31T00:48:10.346Z,100884.28
2022-12-31T00:49:42.380Z,100886.88
2022-12-31T00:51:16.754Z,100889.47
2022-12-31T00:52:48.843Z,100884.22
2022-12-31T00:54:20.866Z,100887.66
2022-12-31T00:55:53.631Z,100891.00
2022-12-31T00:57:25.867Z,100889.19
2022-12-31T00:58:58.685Z,100889.13
2022-12-31T01:00:30.679Z,100891.63
2022-12-31T01:02:02.768Z,100888.97
2022-12-31T01:03:34.932Z,100891.47
2022-12-31T01:05:08.556Z,100897.50
2022-12-31T01:06:43.309Z,100897.50
2022-12-31T01:08:15.357Z,100892.97
2022-12-31T01:09:47.370Z,100901.31
2022-12-31T01:11:20.033Z,100898.72
2022-12-31T01:12:51.997Z,100902.88
2022-12-31T01:14:24.078Z,100902.81
2022-12-31T01:15:56.185Z,100907.06
2022-12-31T01:17:28.684Z,100905.31
2022-12-31T01:19:02.773Z,100907.88
2022-12-31T01:20:43.391Z,100907.91
2022-12-31T01:22:15.551Z,100904.38
2022-12-31T01:23:47.840Z,100900.03
2022-12-31T01:25:19.834Z,100912.84
2022-12-31T01:26:52.122Z,100902.44
2022-12-31T01:28:24.148Z,100907.56
2022-12-31T01:29:56.325Z,100909.19
2022-12-31T01:31:28.491Z,100902.19
2022-12-31T01:33:00.578Z,100905.44
2022-12-31T01:34:32.725Z,100902.78
2022-12-31T01:36:09.820Z,100906.16
2022-12-31T01:37:41.773Z,100906.88
2022-12-31T01:39:13.812Z,100909.34
2022-12-31T01:40:45.891Z,100911.84
2022-12-31T01:42:17.932Z,100913.47
2022-12-31T01:43:51.221Z,100921.16
2022-12-31T01:45:23.874Z,100914.13
2022-12-31T01:47:01.870Z,100915.88
2022-12-31T01:48:33.893Z,100917.41
2022-12-31T01:50:13.340Z,100911.41
2022-12-31T01:51:48.949Z,100919.06
2022-12-31T01:53:21.510Z,100913.03
2022-12-31T01:55:00.003Z,100916.44
2022-12-31T01:56:31.985Z,100916.19
2022-12-31T01:58:14.332Z,100910.16
2022-12-31T01:59:46.413Z,100914.28
2022-12-31T02:01:31.578Z,100923.56
2022-12-31T02:03:06.236Z,100920.06
2022-12-31T02:04:38.317Z,100928.44
2022-12-31T02:06:31.885Z,100914.78
2022-12-31T02:08:04.348Z,100924.06
2022-12-31T02:09:41.432Z,100924.06
2022-12-31T02:11:24.256Z,100921.44
2022-12-31T02:12:56.304Z,100931.59
2022-12-31T02:14:54.268Z,100921.44
2022-12-31T02:16:49.275Z,100935.06
2022-12-31T02:18:30.399Z,100928.06
2022-12-31T02:20:13.389Z,100933.97
2022-12-31T02:22:16.162Z,100928.69
2022-12-31T02:23:51.100Z,100930.97
2022-12-31T02:25:29.865Z,100910.94
2022-12-31T02:27:13.537Z,100930.75
2022-12-31T02:29:13.289Z,100933.19
2022-12-31T02:30:49.080Z,100936.28
2022-12-31T02:32:29.041Z,100942.22
2022-12-31T02:34:19.758Z,100946.22
2022-12-31T02:35:57.292Z,100955.41
2022-12-31T02:37:31.131Z,100952.75
2022-12-31T02:39:05.021Z,100950.97
2022-12-31T02:40:37.619Z,100950.00
2022-12-31T02:42:10.860Z,100939.75
2022-12-31T02:43:48.957Z,100940.69
2022-12-31T02:45:27.475Z,100945.81
2022-12-31T02:47:08.495Z,100951.88
2022-12-31T02:49:12.423Z,100948.53
2022-12-31T02:50:58.746Z,100956.16
2022-12-31T02:52:58.024Z,100953.53
2022-12-31T02:54:56.545Z,100958.59
2022-12-31T02:56:35.782Z,100961.88
2022-12-31T02:58:21.309Z,100962.81
2022-12-31T03:00:25.283Z,100952.56
2022-12-31T03:02:16.131Z,100953.47
2022-12-31T03:03:48.552Z,100946.34
2022-12-31T03:05:23.875Z,100943.72
2022-12-31T03:06:56.009Z,100954.81
2022-12-31T03:08:27.986Z,100955.66
2022-12-31T03:10:01.672Z,100954.81
2022-12-31T03:13:05.402Z,100957.06
2022-12-31T03:14:37.377Z,100959.47
2022-12-31T03:16:09.472Z,100948.28
2022-12-31T03:17:41.480Z,100960.06
2022-12-31T03:19:32.190Z,100954.13
2022-12-31T03:21:22.757Z,100953.94
2022-12-31T03:22:54.846Z,100954.59
2022-12-31T03:24:45.420Z,100953.59
2022-12-31T03:26:17.430Z,100953.66
2022-12-31T03:27:49.864Z,100958.78
2022-12-31T03:29:21.841Z,100945.09
2022-12-31T03:30:56.955Z,100954.59
2022-12-31T03:32:28.945Z,100960.50
2022-12-31T03:34:00.917Z,100951.13
2022-12-31T03:35:34.825Z,100948.56
2022-12-31T03:37:06.814Z,100951.09
2022-12-31T03:38:39.315Z,100948.56
2022-12-31T03:40:12.797Z,100945.25
2022-12-31T03:41:44.884Z,100946.91
2022-12-31T03:43:17.341Z,100949.53
2022-12-31T03:44:49.295Z,100955.44
2022-12-31T03:46:21.327Z,100951.13
2022-12-31T03:47:53.516Z,100966.53
2022-12-31T03:49:25.522Z,100962.19
2022-12-31T03:50:57.549Z,100966.44
2022-12-31T03:52:29.545Z,100969.81
2022-12-31T03:54:01.775Z,100965.53
2022-12-31T03:55:33.853Z,100972.38
2022-12-31T03:57:05.932Z,100965.47
2022-12-31T03:58:37.934Z,100964.47
2022-12-31T04:00:13.083Z,100972.16
2022-12-31T04:01:45.140Z,100962.66
2022-12-31T04:03:17.320Z,100968.66
2022-12-31T04:04:49.517Z,100969.47
2022-12-31T04:06:21.464Z,100960.72
2022-12-31T04:07:53.595Z,100965.78
2022-12-31T04:09:25.699Z,100970.00
2022-12-31T04:10:57.753Z,100965.72
2022-12-31T04:12:29.704Z,100973.38
2022-12-31T04:14:01.725Z,100982.91
2022-12-31T04:15:33.721Z,100980.28
2022-12-31T04:17:05.764Z,100975.97
2022-12-31T04:18:37.696Z,100971.75
2022-12-31T04:20:10.276Z,100979.41
2022-12-31T04:21:42.377Z,100975.16
2022-12-31T04:23:14.565Z,100973.47
2022-12-31T04:24:46.678Z,100972.53
2022-12-31T04:26:18.880Z,100987.81
2022-12-31T04:27:50.957Z,100983.47
2022-12-31T04:29:23.088Z,100987.75
2022-12-31T04:30:55.115Z,100984.25
2022-12-31T04:32:27.138Z,100988.50
2022-12-31T04:33:59.086Z,100999.44
2022-12-31T04:35:31.115Z,100998.53
2022-12-31T04:37:03.889Z,101004.38
2022-12-31T04:38:35.960Z,101002.56
2022-12-31T04:41:40.809Z,100992.22
2022-12-31T04:43:12.910Z,100999.97
2022-12-31T04:44:45.059Z,101010.28
2022-12-31T04:46:19.385Z,101012.88
2022-12-31T04:47:51.445Z,101007.78
2022-12-31T04:49:23.459Z,101019.69
2022-12-31T04:50:55.488Z,101005.06
2022-12-31T04:52:27.456Z,101009.97
2022-12-31T04:53:59.659Z,101008.13
2022-12-31T04:55:31.918Z,101016.59
2022-12-31T04:57:04.130Z,101025.88
2022-12-31T04:58:37.262Z,101018.22
2022-12-31T05:00:14.010Z,101020.19
2022-12-31T05:01:46.073Z,101020.19
2022-12-31T05:03:19.321Z,101026.22
2022-12-31T05:04:51.424Z,101021.69
2022-12-31T05:06:24.114Z,101023.41
2022-12-31T05:07:56.111Z,101028.63
2022-12-31T05:09:28.598Z,101028.63
2022-12-31T05:11:02.847Z,101027.81
2022-12-31T05:12:34.830Z,101037.97
2022-12-31T05:15:47.128Z,101042.44
2022-12-31T05:17:21.062Z,101039.72
2022-12-31T05:18:53.089Z,101040.63
2022-12-31T05:20:25.037Z,101040.56
2022-12-31T05:22:15.301Z,101035.25
2022-12-31T05:23:47.699Z,101040.28
2022-12-31T05:25:19.691Z,101031.63
2022-12-31T05:26:51.685Z,101040.97
2022-12-31T05:28:23.828Z,101042.81
2022-12-31T05:29:55.846Z,101047.09
2022-12-31T05:31:27.925Z,101051.44
2022-12-31T05:32:59.944Z,101038.66
2022-12-31T05:34:31.971Z,101042.13
2022-12-31T05:36:04.502Z,101044.75
2022-12-31T05:37:36.661Z,101054.91
2022-12-31T05:39:08.653Z,101051.34
2022-12-31T05:40:40.717Z,101052.13
2022-12-31T05:42:12.877Z,101055.47
2022-12-31T05:43:44.848Z,101051.13
2022-12-31T05:45:18.697Z,101056.13
2022-12-31T05:46:50.875Z,101061.13
2022-12-31T05:48:22.991Z,101066.00
2022-12-31T05:49:55.092Z,101070.19
2022-12-31T05:51:27.198Z,101068.47
2022-12-31T05:52:59.259Z,101067.53
2022-12-31T05:54:31.516Z,101074.38
2022-12-31T05:56:03.579Z,101075.31
2022-12-31T05:57:35.582Z,101070.09
2022-12-31T05:59:07.624Z,101070.97
2022-12-31T06:00:39.862Z,101079.56
2022-12-31T06:02:11.877Z,101077.78
2022-12-31T06:03:45.125Z,101069.44
2022-12-31T06:05:25.933Z,101077.06
2022-12-31T06:06:58.561Z,101088.06
2022-12-31T06:08:30.618Z,101075.44
2022-12-31T06:10:02.655Z,101080.63
2022-12-31T06:11:34.883Z,101077.28
2022-12-31T06:13:07.349Z,101089.94
2022-12-31T06:14:45.309Z,101091.50
2022-12-31T06:16:17.801Z,101093.09
2022-12-31T06:19:28.661Z,101103.00
2022-12-31T06:21:00.833Z,101097.91
2022-12-31T06:22:32.872Z,101091.22
2022-12-31T06:24:05.262Z,101098.00
2022-12-31T06:25:40.160Z,101094.59
2022-12-31T06:27:12.198Z,101093.03
2022-12-31T06:28:44.289Z,101100.00
2022-12-31T06:30:16.458Z,101105.31
2022-12-31T06:31:48.473Z,101097.75
2022-12-31T06:33:20.462Z,101106.50
2022-12-31T06:34:52.527Z,101101.63
2022-12-31T06:36:24.617Z,101105.16
2022-12-31T06:37:56.577Z,101105.25
2022-12-31T06:39:28.962Z,101106.25
2022-12-31T06:41:04.999Z,101100.41
2022-12-31T06:42:37.074Z,101112.28
2022-12-31T06:44:09.119Z,101112.28
2022-12-31T06:45:41.132Z,101112.41
2022-12-31T06:47:13.159Z,101114.22
2022-12-31T06:48:46.009Z,101111.00
2022-12-31T06:50:18.119Z,101112.84
2022-12-31T06:51:50.287Z,101111.31
2022-12-31T06:53:22.512Z,101116.72
2022-12-31T06:54:54.840Z,101116.88
2022-12-31T06:56:34.686Z,101120.56
2022-12-31T06:58:09.677Z,101116.44
2022-12-31T06:59:41.991Z,101117.50
2022-12-31T07:01:41.704Z,101122.19
2022-12-31T07:03:28.128Z,101129.31
2022-12-31T07:05:06.819Z,101131.25
2022-12-31T07:06:48.498Z,101123.72
2022-12-31T07:08:26.481Z,101132.66
2022-12-31T07:10:29.995Z,101135.47
2022-12-31T07:12:36.938Z,101133.19
2022-12-31T07:14:36.548Z,101135.16
2022-12-31T07:16:32.848Z,101149.16
2022-12-31T07:18:18.009Z,101143.34
2022-12-31T07:20:11.560Z,101139.28
2022-12-31T07:21:44.292Z,101147.09
2022-12-31T07:23:16.592Z,101155.88
2022-12-31T07:24:48.970Z,101147.47
2022-12-31T07:26:56.912Z,101156.50
2022-12-31T07:28:42.063Z,101154.19
2022-12-31T07:30:16.969Z,101153.50
2022-12-31T07:32:26.276Z,101154.72
2022-12-31T07:34:08.912Z,101154.09
2022-12-31T07:36:14.509Z,101157.00
2022-12-31T07:37:46.461Z,101156.25
2022-12-31T07:39:36.001Z,101150.63
2022-12-31T07:41:39.998Z,101149.16
2022-12-31T07:43:54.187Z,101151.91
2022-12-31T07:45:35.720Z,101157.25
2022-12-31T07:47:25.391Z,101149.66
2022-12-31T07:48:58.119Z,101163.50
2022-12-31T07:50:30.687Z,101156.88
2022-12-31T07:52:05.910Z,101163.97
2022-12-31T07:53:38.186Z,101162.44
2022-12-31T07:55:11.291Z,101162.69
2022-12-31T07:56:43.762Z,101158.66
2022-12-31T07:58:25.049Z,101169.31
2022-12-31T08:00:05.884Z,101163.59
2022-12-31T08:02:00.463Z,101163.06
2022-12-31T08:03:38.515Z,101163.34
2022-12-31T08:05:34.834Z,101167.00
2022-12-31T08:07:20.095Z,101156.94
2022-12-31T08:09:16.361Z,101164.91
2022-12-31T08:11:10.307Z,101162.59
2022-12-31T08:12:42.757Z,101164.41
2022-12-31T08:14:15.777Z,101159.47
2022-12-31T08:15:48.184Z,101162.22
2022-12-31T08:17:20.655Z,101162.41
2022-12-31T08:18:53.006Z,101162.56
2022-12-31T08:20:26.462Z,101155.03
2022-12-31T08:22:17.061Z,101161.25
2022-12-31T08:24:04.699Z,101164.84
2022-12-31T08:25:39.598Z,101163.16
2022-12-31T08:27:30.577Z,101167.72
2022-12-31T08:29:18.508Z,101161.00
2022-12-31T08:31:42.024Z,101159.44
2022-12-31T08:33:20.174Z,101155.28
2022-12-31T08:35:27.280Z,101162.31
2022-12-31T08:37:07.394Z,101154.72
2022-12-31T08:38:50.604Z,101146.22
2022-12-31T08:40:48.439Z,101153.28
2022-12-31T08:42:28.003Z,101156.84
2022-12-31T08:44:24.316Z,101156.09
2022-12-31T08:45:57.284Z,101160.47
2022-12-31T08:47:44.639Z,101156.31
2022-12-31T08:49:17.110Z,101153.81
2022-12-31T08:50:49.452Z,101153.91
2022-12-31T08:52:26.534Z,101147.13
2022-12-31T08:53:58.773Z,101150.63
2022-12-31T08:55:31.185Z,101146.41
2022-12-31T08:57:27.903Z,101152.59
2022-12-31T08:59:29.596Z,101146.63
2022-12-31T09:01:02.110Z,101144.97
2022-12-31T09:02:54.335Z,101146.81
2022-12-31T09:04:49.842Z,101149.47
2022-12-31T09:06:38.861Z,101144.34
2022-12-31T09:08:44.595Z,101140.13
2022-12-31T09:10:28.435Z,101136.75
2022-12-31T09:12:14.660Z,101131.63
2022-12-31T09:14:01.152Z,101132.53
2022-12-31T09:15:41.882Z,101131.66
2022-12-31T09:17:35.365Z,101123.97
2022-12-31T09:19:10.569Z,101116.19
2022-12-31T09:20:44.393Z,101117.94
2022-12-31T09:22:16.972Z,101121.38
2022-12-31T09:23:49.245Z,101110.19
2022-12-31T09:25:22.465Z,101116.25
2022-12-31T09:27:07.019Z,101109.34
2022-12-31T09:29:05.308Z,101105.91
2022-12-31T09:30:51.989Z,101110.28
2022-12-31T09:32:39.165Z,101102.50
2022-12-31T09:34:31.040Z,101105.97
2022-12-31T09:36:11.074Z,101095.59
2022-12-31T09:37:43.033Z,101102.50
2022-12-31T09:39:27.197Z,101103.34
2022-12-31T09:41:18.234Z,101099.88
2022-12-31T09:43:14.805Z,101092.06
2022-12-31T09:45:20.709Z,101094.63
2022-12-31T09:47:17.016Z,101088.53
2022-12-31T09:48:57.879Z,101083.31
2022-12-31T09:50:52.988Z,101085.91
2022-12-31T09:52:56.836Z,101078.94
2022-12-31T09:54:46.945Z,101067.66
2022-12-31T09:56:27.668Z,101074.53
2022-12-31T09:58:34.692Z,101067.56
2022-12-31T10:00:21.931Z,101067.53
2022-12-31T10:02:03.090Z,101060.59
2022-12-31T10:03:35.241Z,101068.34
2022-12-31T10:05:33.618Z,101065.66
2022-12-31T10:07:17.666Z,101054.34
2022-12-31T10:09:02.551Z,101055.94
2022-12-31T10:10:53.150Z,101055.00
2022-12-31T10:12:37.289Z,101054.09
2022-12-31T10:14:36.380Z,101061.00
2022-12-31T10:18:05.882Z,101052.22
2022-12-31T10:19:40.740Z,101051.38
2022-12-31T10:21:44.616Z,101043.47
2022-12-31T10:23:35.153Z,101048.56
2022-12-31T10:25:46.514Z,101043.28
2022-12-31T10:27:34.096Z,101037.03
2022-12-31T10:29:39.380Z,101042.03
2022-12-31T10:31:14.850Z,101032.53
2022-12-31T10:33:03.875Z,101031.50
2022-12-31T10:34:44.286Z,101028.06
2022-12-31T10:36:21.287Z,101027.13
2022-12-31T10:38:17.724Z,101025.34
2022-12-31T10:40:06.676Z,101030.50
2022-12-31T10:42:15.766Z,101020.09
2022-12-31T10:43:59.689Z,101015.72
2022-12-31T10:45:34.598Z,101013.91
2022-12-31T10:47:42.019Z,101013.88
2022-12-31T10:49:17.052Z,101013.84
2022-12-31T10:51:19.423Z,101014.72
2022-12-31T10:53:11.147Z,101012.97
2022-12-31T10:55:01.604Z,101012.06
2022-12-31T10:56:56.811Z,101015.50
2022-12-31T10:58:33.303Z,101007.75
2022-12-31T11:00:13.259Z,101011.06
2022-12-31T11:02:08.759Z,101010.09
2022-12-31T11:04:02.802Z,101013.34
2022-12-31T11:06:08.448Z,101011.53
2022-12-31T11:07:46.740Z,101001.88
2022-12-31T11:09:34.801Z,101000.91
2022-12-31T11:11:50.881Z,101006.03
2022-12-31T11:13:58.683Z,100998.13
2022-12-31T11:15:54.138Z,100998.09
2022-12-31T11:17:38.065Z,100997.09
2022-12-31T11:19:38.956Z,100999.56
2022-12-31T11:21:36.294Z,100996.78
2022-12-31T11:23:31.097Z,100991.47
2022-12-31T11:25:12.749Z,100993.97
2022-12-31T11:27:04.093Z,100999.88
2022-12-31T11:28:51.255Z,100995.44
2022-12-31T11:30:28.168Z,100990.66
2022-12-31T11:32:03.050Z,100988.75
2022-12-31T11:33:50.535Z,100996.38
2022-12-31T11:35:34.082Z,100988.38
2022-12-31T11:37:30.400Z,100990.75
2022-12-31T11:39:13.771Z,100998.53
2022-12-31T11:40:57.243Z,100985.41
2022-12-31T11:43:06.997Z,100999.19
2022-12-31T11:45:00.604Z,100995.72
2022-12-31T11:46:44.497Z,100992.19
2022-12-31T11:48:30.124Z,100988.56
2022-12-31T11:50:28.243Z,100990.16
2022-12-31T11:52:04.125Z,101001.44
2022-12-31T11:53:44.575Z,101003.72
2022-12-31T11:55:25.940Z,100995.66
2022-12-31T11:57:30.166Z,100999.91
2022-12-31T11:59:07.720Z,100998.97
2022-12-31T12:00:46.156Z,100999.56
2022-12-31T12:02:36.283Z,100998.38
2022-12-31T12:04:10.454Z,101004.44
2022-12-31T12:05:42.564Z,101009.66
2022-12-31T12:07:15.128Z,101006.94
2022-12-31T12:08:47.318Z,101010.34
2022-12-31T12:10:51.573Z,101007.72
2022-12-31T12:12:23.867Z,101011.28
2022-12-31T12:13:55.979Z,101009.38
2022-12-31T12:15:31.910Z,101006.47
2022-12-31T12:17:08.041Z,101003.81
2022-12-31T12:18:46.906Z,101008.97
2022-12-31T12:21:51.947Z,100994.47
2022-12-31T12:23:25.987Z,101012.50
2022-12-31T12:25:11.016Z,101009.84
2022-12-31T12:26:44.765Z,101005.53
2022-12-31T12:28:24.596Z,101016.66
2022-12-31T12:29:56.752Z,101006.34
2022-12-31T12:31:28.922Z,101017.47
2022-12-31T12:33:05.140Z,101018.22
2022-12-31T12:34:43.147Z,101021.69
2022-12-31T12:36:20.219Z,101025.13
2022-12-31T12:38:03.694Z,101021.53
2022-12-31T12:39:35.857Z,101023.34
2022-12-31T12:41:13.144Z,101027.56
2022-12-31T12:42:53.265Z,101027.47
2022-12-31T12:44:25.317Z,101030.91
2022-12-31T12:46:05.372Z,101016.84
2022-12-31T12:47:37.452Z,101030.25
2022-12-31T12:49:23.692Z,101032.00
2022-12-31T12:50:55.873Z,101033.16
2022-12-31T12:53:04.405Z,101032.47
2022-12-31T12:56:25.206Z,101033.78
2022-12-31T12:58:22.774Z,101034.69
2022-12-31T13:00:07.950Z,101034.69
2022-12-31T13:01:56.700Z,101042.69
2022-12-31T13:03:59.968Z,101040.50
2022-12-31T13:05:33.042Z,101041.50
2022-12-31T13:07:37.216Z,101045.78
2022-12-31T13:09:19.553Z,101043.13
2022-12-31T13:11:11.921Z,101042.34
2022-12-31T13:13:23.728Z,101043.94
2022-12-31T13:15:19.225Z,101040.28
2022-12-31T13:17:21.209Z,101041.22
2022-12-31T13:19:00.291Z,101044.94
2022-12-31T13:20:38.559Z,101047.22
2022-12-31T13:22:30.918Z,101051.41
2022-12-31T13:24:28.634Z,101049.72
2022-12-31T13:26:13.613Z,101052.44
2022-12-31T13:27:47.268Z,101050.97
2022-12-31T13:29:22.786Z,101057.13
2022-12-31T13:31:06.562Z,101063.97
2022-12-31T13:32:45.772Z,101059.56
2022-12-31T13:34:21.850Z,101060.38
2022-12-31T13:36:02.679Z,101063.88
2022-12-31T13:37:38.742Z,101072.56
2022-12-31T13:39:19.420Z,101064.81
2022-12-31T13:41:15.628Z,101068.34
2022-12-31T13:42:55.553Z,101072.75
2022-12-31T13:45:10.116Z,101064.94
2022-12-31T13:47:00.553Z,101063.41
2022-12-31T13:48:41.197Z,101057.38
2022-12-31T13:50:27.981Z,101066.97
2022-12-31T13:52:27.623Z,101071.97
2022-12-31T13:54:05.669Z,101065.00
2022-12-31T13:55:41.331Z,101058.22
2022-12-31T13:57:50.245Z,101063.50
2022-12-31T13:59:23.362Z,101060.91
2022-12-31T14:01:19.423Z,101065.06
2022-12-31T14:03:00.064Z,101072.91
2022-12-31T14:04:36.101Z,101066.06
2022-12-31T14:06:23.115Z,101072.25
2022-12-31T14:07:57.671Z,101076.56
2022-12-31T14:09:31.540Z,101070.44
2022-12-31T14:11:25.908Z,101070.44
2022-12-31T14:13:05.966Z,101069.59
2022-12-31T14:15:01.467Z,101064.47
2022-12-31T14:16:46.254Z,101059.31
2022-12-31T14:18:28.139Z,101055.03
2022-12-31T14:20:18.601Z,101063.00
2022-12-31T14:22:00.973Z,101063.28
2022-12-31T14:23:59.926Z,101072.19
2022-12-31T14:25:38.816Z,101069.75
2022-12-31T14:27:23.525Z,101056.97
2022-12-31T14:29:15.087Z,101063.28
2022-12-31T14:30:51.006Z,101061.69
2022-12-31T14:32:32.511Z,101057.56
2022-12-31T14:34:23.815Z,101060.38
2022-12-31T14:36:20.501Z,101063.13
2022-12-31T14:38:12.913Z,101062.56
2022-12-31T14:40:22.296Z,101057.59
2022-12-31T14:42:03.468Z,101059.56
2022-12-31T14:43:41.121Z,101058.94
2022-12-31T14:45:51.422Z,101062.63
2022-12-31T14:47:52.181Z,101061.94
2022-12-31T14:49:48.786Z,101076.78
2022-12-31T14:51:28.420Z,101076.94
2022-12-31T14:53:00.448Z,101069.31
2022-12-31T14:54:37.761Z,101076.31
2022-12-31T14:56:45.623Z,101079.03
2022-12-31T14:58:33.080Z,101080.88
2022-12-31T15:00:37.038Z,101079.25
2022-12-31T15:04:00.050Z,101083.00
2022-12-31T15:05:37.194Z,101081.31
2022-12-31T15:07:41.795Z,101081.41
2022-12-31T15:09:24.067Z,101083.19
2022-12-31T15:11:32.163Z,101078.91
2022-12-31T15:13:07.839Z,101083.28
2022-12-31T15:14:39.795Z,101084.19
2022-12-31T15:16:36.655Z,101086.81
2022-12-31T15:18:23.715Z,101086.00
2022-12-31T15:20:18.191Z,101085.13
2022-12-31T15:22:20.838Z,101082.56
2022-12-31T15:23:53.142Z,101092.97
2022-12-31T15:25:36.781Z,101092.13
2022-12-31T15:27:30.779Z,101093.84
2022-12-31T15:29:08.778Z,101099.06
2022-12-31T15:30:45.827Z,101097.31
2022-12-31T15:32:32.286Z,101108.50
2022-12-31T15:34:21.884Z,101113.69
2022-12-31T15:35:56.424Z,101105.88
2022-12-31T15:37:32.728Z,101111.03
2022-12-31T15:39:10.571Z,101119.66
2022-12-31T15:40:51.090Z,101126.56
2022-12-31T15:42:51.566Z,101128.28
2022-12-31T15:44:26.499Z,101135.97
2022-12-31T15:45:58.906Z,101142.84
2022-12-31T15:47:35.633Z,101143.69
2022-12-31T15:49:15.632Z,101144.50
2022-12-31T15:50:50.982Z,101144.44
2022-12-31T15:52:32.837Z,101156.50
2022-12-31T15:54:05.640Z,101152.09
2022-12-31T15:55:43.579Z,101153.81
2022-12-31T15:57:21.435Z,101154.59
2022-12-31T15:58:57.829Z,101157.16
2022-12-31T16:00:56.800Z,101153.69
2022-12-31T16:02:29.384Z,101151.88
2022-12-31T16:04:08.165Z,101144.94
2022-12-31T16:05:40.213Z,101153.47
2022-12-31T16:07:12.843Z,101155.16
2022-12-31T16:08:47.071Z,101149.06
2022-12-31T16:10:24.513Z,101157.56
2022-12-31T16:11:57.790Z,101161.84
2022-12-31T16:13:30.118Z,101164.31
2022-12-31T16:15:02.772Z,101162.56
2022-12-31T16:16:34.856Z,101160.75
2022-12-31T16:18:10.983Z,101159.00
2022-12-31T16:19:46.541Z,101166.69
2022-12-31T16:21:33.203Z,101165.75
2022-12-31T16:23:19.561Z,101171.72
2022-12-31T16:25:29.719Z,101173.34
2022-12-31T16:26:53.918Z,101174.97
2022-12-31T16:28:31.375Z,101174.03
2022-12-31T16:30:08.886Z,101176.56
2022-12-31T16:31:43.490Z,101178.22
2022-12-31T16:33:15.853Z,101179.00
2022-12-31T16:34:47.917Z,101180.59
2022-12-31T16:36:22.310Z,101171.94
2022-12-31T16:38:20.767Z,101178.81
2022-12-31T16:39:58.909Z,101184.75
2022-12-31T16:41:42.448Z,101177.81
2022-12-31T16:43:27.201Z,101187.19
2022-12-31T16:45:19.127Z,101179.28
2022-12-31T16:46:51.150Z,101186.03
2022-12-31T16:48:23.377Z,101190.25
2022-12-31T16:50:08.478Z,101195.41
2022-12-31T16:51:40.732Z,101199.56
2022-12-31T16:53:17.746Z,101194.38
2022-12-31T16:54:51.051Z,101203.84
2022-12-31T16:56:43.377Z,101204.69
2022-12-31T16:58:22.611Z,101210.66
2022-12-31T16:59:57.268Z,101205.44
2022-12-31T17:01:33.278Z,101207.06
2022-12-31T17:03:17.676Z,101205.28
2022-12-31T17:04:55.670Z,101218.88
2022-12-31T17:06:32.389Z,101217.06
2022-12-31T17:08:24.176Z,101215.22
2022-12-31T17:10:42.627Z,101220.19
2022-12-31T17:12:17.025Z,101225.94
2022-12-31T17:13:56.385Z,101226.69
2022-12-31T17:15:40.919Z,101222.34
2022-12-31T17:17:21.481Z,101219.56
2022-12-31T17:18:53.537Z,101231.53
2022-12-31T17:20:28.650Z,101235.88
2022-12-31T17:22:01.399Z,101233.22
2022-12-31T17:23:35.639Z,101232.41
2022-12-31T17:25:31.308Z,101229.78
2022-12-31T17:27:09.204Z,101235.69
2022-12-31T17:28:46.966Z,101240.72
2022-12-31T17:30:28.139Z,101244.16
2022-12-31T17:32:01.571Z,101248.28
2022-12-31T17:33:33.648Z,101244.75
2022-12-31T17:35:28.743Z,101247.28
2022-12-31T17:37:17.910Z,101260.06
2022-12-31T17:38:50.562Z,101252.13
2022-12-31T17:40:51.641Z,101246.97
2022-12-31T17:42:34.700Z,101253.72
2022-12-31T17:44:18.926Z,101249.19
2022-12-31T17:45:52.196Z,101247.31
2022-12-31T17:47:24.232Z,101252.31
2022-12-31T17:49:01.357Z,101260.94
2022-12-31T17:50:33.460Z,101255.72
2022-12-31T17:52:10.743Z,101257.50
2022-12-31T17:53:42.815Z,101256.47
2022-12-31T17:55:15.445Z,101258.19
2022-12-31T17:56:47.792Z,101250.41
2022-12-31T17:58:38.911Z,101247.09
2022-12-31T18:00:21.027Z,101253.91
2022-12-31T18:01:53.298Z,101254.66
2022-12-31T18:03:26.712Z,101260.66
2022-12-31T18:04:58.747Z,101257.03
2022-12-31T18:06:31.001Z,101249.03
2022-12-31T18:08:03.003Z,101258.34
2022-12-31T18:09:35.031Z,101257.19
2022-12-31T18:11:07.996Z,101252.75
2022-12-31T18:12:40.383Z,101259.38
2022-12-31T18:14:16.285Z,101255.00
2022-12-31T18:15:48.653Z,101258.16
2022-12-31T18:17:20.703Z,101256.25
2022-12-31T18:18:52.771Z,101248.47
2022-12-31T18:20:25.421Z,101249.31
2022-12-31T18:22:00.937Z,101253.53
2022-12-31T18:23:39.227Z,101249.31
2022-12-31T18:25:14.796Z,101256.16
2022-12-31T18:26:46.860Z,101256.09
2022-12-31T18:28:18.906Z,101254.34
2022-12-31T18:29:51.075Z,101247.44
2022-12-31T18:31:29.559Z,101238.13
2022-12-31T18:33:01.642Z,101242.19
2022-12-31T18:34:33.764Z,101250.84
2022-12-31T18:36:09.286Z,101255.19
2022-12-31T18:37:42.179Z,101258.56
2022-12-31T18:39:14.284Z,101263.66
2022-12-31T18:40:55.948Z,101270.66
2022-12-31T18:42:28.886Z,101261.97
2022-12-31T18:44:01.548Z,101271.41
2022-12-31T18:45:33.587Z,101262.00
2022-12-31T18:47:14.464Z,101258.69
2022-12-31T18:48:46.602Z,101264.53
2022-12-31T18:50:18.652Z,101257.66
2022-12-31T18:51:54.332Z,101264.44
2022-12-31T18:53:26.383Z,101255.03
2022-12-31T18:54:58.737Z,101268.72
2022-12-31T18:56:31.758Z,101260.09
2022-12-31T18:58:03.912Z,101260.00
2022-12-31T18:59:36.022Z,101255.59
2022-12-31T19:01:26.373Z,101255.59
2022-12-31T19:02:58.560Z,101257.88
2022-12-31T19:04:30.662Z,101253.59
2022-12-31T19:06:02.713Z,101259.53
2022-12-31T19:07:34.775Z,101259.63
2022-12-31T19:09:23.719Z,101258.78
2022-12-31T19:10:59.245Z,101256.28
2022-12-31T19:12:31.299Z,101252.00
2022-12-31T19:14:03.692Z,101250.28
2022-12-31T19:15:43.432Z,101250.47
2022-12-31T19:17:15.494Z,101245.22
2022-12-31T19:18:47.978Z,101256.28